Time;durP1;ratioP1;P1;durP2;ratioP2;P2;SDS_P1;SDS_P2;PMS_P1;PMS_P2;Temp;Humidity;BMP_temperature;BMP_pressure;BME280_temperature;BME280_humidity;BME280_pressure;Samples;Min_cycle;Max_cycle;Signal;HPM_P1;HPM_P2
2023/03/18 00:01:06;;;;;;;;;17.50;17.00;;;;;13.92;57.43;100439.59;4999141;27;45514;-70
2023/03/18 00:03:32;;;;;;;;;19.75;17.75;;;;;13.88;57.82;100435.31;4998347;28;47127;-70
2023/03/18 00:06:06;;;;;;;;;19.50;17.25;;;;;13.89;57.46;100434.41;4997909;28;45260;-70
2023/03/18 00:08:32;;;;;;;;;17.25;14.25;;;;;13.88;57.82;100435.31;4996718;27;45376;-70
2023/03/18 00:10:58;;;;;;;;;16.50;16.50;;;;;13.85;57.62;100438.06;4997680;28;45587;-70
2023/03/18 00:13:24;;;;;;;;;16.25;16.25;;;;;13.83;57.43;100445.16;4997098;28;47021;-70
2023/03/18 00:15:50;;;;;;;;;18.25;16.00;;;;;13.80;57.42;100446.13;4996649;27;45265;-70
2023/03/18 00:18:16;;;;;;;;;15.50;14.25;;;;;13.78;57.71;100444.47;4998734;28;45198;-70
2023/03/18 00:20:41;;;;;;;;;15.50;15.25;;;;;13.76;57.39;100448.91;4998037;28;45357;-70
2023/03/18 00:23:08;;;;;;;;;18.00;16.00;;;;;13.72;57.52;100448.19;4998079;28;46077;-69
2023/03/18 00:25:34;;;;;;;;;13.50;13.25;;;;;13.71;57.78;100450.84;4998156;27;45298;-70
2023/03/18 00:27:59;;;;;;;;;17.25;15.75;;;;;13.67;57.85;100451.84;4998492;28;45508;-70
2023/03/18 00:30:24;;;;;;;;;16.50;15.25;;;;;13.64;57.73;100443.09;4996760;27;45831;-70
2023/03/18 00:32:50;;;;;;;;;11.00;11.00;;;;;13.61;57.75;100451.13;4998256;28;46830;-70
2023/03/18 00:35:15;;;;;;;;;16.00;13.25;;;;;13.54;57.56;100444.31;4997894;27;45258;-70
2023/03/18 00:37:41;;;;;;;;;14.00;12.00;;;;;13.58;57.73;100460.94;4998161;27;45283;-70
2023/03/18 00:40:09;;;;;;;;;14.25;13.50;;;;;13.55;57.41;100469.81;4997393;27;45411;-70
2023/03/18 00:42:46;;;;;;;;;12.00;11.75;;;;;13.51;57.67;100468.19;4998053;27;45396;-70
2023/03/18 00:45:13;;;;;;;;;14.00;13.00;;;;;13.48;57.35;100461.22;4997745;28;45358;-70
2023/03/18 00:47:38;;;;;;;;;13.75;12.25;;;;;13.45;57.61;100460.44;4997987;28;45243;-70
2023/03/18 00:50:06;;;;;;;;;14.75;14.75;;;;;13.41;57.45;100450.88;5010595;27;46012;-70
2023/03/18 00:52:32;;;;;;;;;14.25;12.75;;;;;13.37;57.70;100449.22;4989348;28;46137;-70
2023/03/18 00:54:58;;;;;;;;;15.25;12.75;;;;;13.36;57.65;100443.09;5012835;27;45382;-70
2023/03/18 00:57:23;;;;;;;;;16.00;14.50;;;;;13.35;57.43;100449.28;5013272;27;45550;-70
2023/03/18 00:59:48;;;;;;;;;9.75;8.00;;;;;13.33;57.39;100436.13;4997063;27;45306;-70
2023/03/18 01:02:14;;;;;;;;;19.75;15.75;;;;;13.32;57.61;100442.31;4997805;27;46553;-70
2023/03/18 01:04:40;;;;;;;;;14.50;13.75;;;;;13.32;57.59;100444.09;4997653;27;45334;-70
2023/03/18 01:07:05;;;;;;;;;15.50;13.75;;;;;13.31;57.72;100443.22;5013121;27;45351;-71
2023/03/18 01:09:31;;;;;;;;;13.00;13.00;;;;;13.30;57.49;100456.47;4988841;27;45319;-70
2023/03/18 01:11:56;;;;;;;;;13.00;13.00;;;;;13.29;57.74;100460.88;5007156;28;45201;-71
2023/03/18 01:14:21;;;;;;;;;14.25;14.25;;;;;13.26;57.61;100458.31;4997533;28;45231;-71
2023/03/18 01:16:47;;;;;;;;;12.50;11.25;;;;;13.25;57.56;100453.97;4996531;28;45220;-70
2023/03/18 01:19:13;;;;;;;;;12.25;11.25;;;;;13.20;57.56;100449.75;4997636;28;45236;-70
2023/03/18 01:21:38;;;;;;;;;12.25;12.25;;;;;13.20;57.77;100460.28;4997680;28;46030;-70
2023/03/18 01:24:04;;;;;;;;;7.75;6.00;;;;;13.17;57.95;100459.47;4997643;28;45231;-70
2023/03/18 01:26:29;;;;;;;;;13.25;12.25;;;;;13.12;57.58;100442.91;4997995;28;45273;-70
2023/03/18 01:28:55;;;;;;;;;14.75;13.75;;;;;13.12;57.58;100448.19;4997255;28;45480;-70
2023/03/18 01:31:20;;;;;;;;;14.75;11.00;;;;;13.10;57.73;100454.41;4997326;28;53519;-71
2023/03/18 01:33:46;;;;;;;;;8.50;7.75;;;;;13.07;57.79;100446.56;4997546;28;45313;-70
2023/03/18 01:36:12;;;;;;;;;14.75;12.50;;;;;13.05;57.74;100436.06;5012971;28;45483;-70
2023/03/18 01:38:39;;;;;;;;;12.50;12.50;;;;;13.07;57.91;100449.22;4994422;27;45573;-70
2023/03/18 01:41:04;;;;;;;;;13.00;10.50;;;;;13.06;57.83;100444.88;4995241;28;46320;-70
2023/03/18 01:43:33;;;;;;;;;12.50;12.50;;;;;13.03;57.57;100430.00;4994935;28;45703;-71
2023/03/18 01:46:00;;;;;;;;;12.50;12.50;;;;;13.04;57.88;100431.72;4995266;28;45501;-70
2023/03/18 01:48:33;;;;;;;;;12.75;12.75;;;;;13.02;57.90;100428.28;4994797;28;45418;-71
2023/03/18 01:51:04;;;;;;;;;10.50;9.75;;;;;13.03;57.66;100431.75;4983695;28;46294;-71
2023/03/18 01:53:35;;;;;;;;;6.00;5.00;;;;;13.00;57.49;100436.22;4991555;28;45510;-70
2023/03/18 01:56:02;;;;;;;;;11.25;11.25;;;;;13.02;57.49;100433.53;4997440;28;45155;-70
2023/03/18 01:58:36;;;;;;;;;12.00;11.75;;;;;13.00;57.51;100438.88;4996669;28;45537;-70
2023/03/18 02:01:22;;;;;;;;;11.75;10.00;;;;;13.01;57.34;100443.22;4996796;28;45371;-70
2023/03/18 02:03:50;;;;;;;;;11.00;9.00;;;;;13.01;57.48;100445.84;4997157;28;45423;-72
2023/03/18 02:06:15;;;;;;;;;10.75;10.00;;;;;13.01;57.72;100434.44;4997142;28;45369;-71
2023/03/18 02:08:41;;;;;;;;;11.25;10.00;;;;;13.00;57.40;100443.25;5012419;28;45326;-70
2023/03/18 02:11:08;;;;;;;;;11.25;9.75;;;;;12.99;57.42;100437.13;4996842;28;45286;-70
2023/03/18 02:13:41;;;;;;;;;8.75;7.50;;;;;12.99;57.72;100441.53;4997101;28;45233;-71
2023/03/18 02:16:18;;;;;;;;;13.25;10.25;;;;;12.98;57.29;100435.41;4995625;28;45574;-70
2023/03/18 02:18:49;;;;;;;;;12.25;8.50;;;;;12.97;57.37;100431.03;4997044;28;45169;-71
2023/03/18 02:21:51;;;;;;;;;10.00;6.75;;;;;12.96;57.42;100434.56;4984031;28;45328;-71
2023/03/18 02:24:35;;;;;;;;;6.75;6.00;;;;;12.93;57.56;100437.31;4996644;28;45352;-70
2023/03/18 02:27:11;;;;;;;;;8.25;8.25;;;;;12.93;57.41;100441.69;4995703;28;45451;-70
2023/03/18 02:29:38;;;;;;;;;8.50;8.50;;;;;12.93;57.68;100433.78;4996425;28;45354;-70
2023/03/18 02:32:05;;;;;;;;;8.50;7.00;;;;;12.90;57.69;100437.38;4996470;28;46343;-71
2023/03/18 02:34:33;;;;;;;;;10.00;8.50;;;;;12.90;57.42;100431.25;4996815;28;45243;-70
2023/03/18 02:36:59;;;;;;;;;6.25;6.00;;;;;12.88;57.51;100422.50;4996690;28;45530;-70
2023/03/18 02:39:25;;;;;;;;;11.00;9.00;;;;;12.87;57.52;100426.94;4996585;28;45440;-71
2023/03/18 02:41:52;;;;;;;;;7.00;7.00;;;;;12.87;57.65;100421.66;4995240;28;47587;-70
2023/03/18 02:44:18;;;;;;;;;5.75;5.50;;;;;12.83;57.65;100418.25;4996164;28;45447;-71
2023/03/18 02:47:09;;;;;;;;;8.75;8.00;;;;;12.87;57.52;100428.69;4996670;28;45403;-70
2023/03/18 02:49:35;;;;;;;;;9.50;8.50;;;;;12.83;57.43;100428.78;4996324;28;45469;-70
2023/03/18 02:52:00;;;;;;;;;8.50;7.50;;;;;12.83;57.22;100427.94;4983061;28;45945;-72
2023/03/18 02:54:28;;;;;;;;;11.00;7.75;;;;;12.83;57.58;100443.75;4996608;28;45723;-71
2023/03/18 02:56:56;;;;;;;;;3.75;3.75;;;;;12.82;57.55;100444.66;4983773;28;45378;-71
2023/03/18 02:59:22;;;;;;;;;4.50;3.50;;;;;12.82;57.28;100444.66;4996108;28;45302;-71
2023/03/18 03:01:51;;;;;;;;;7.25;7.25;;;;;12.81;57.43;100449.06;4996231;28;45347;-71
2023/03/18 03:04:18;;;;;;;;;10.00;9.75;;;;;12.80;57.41;100449.09;4997431;28;45412;-71
2023/03/18 03:06:44;;;;;;;;;9.75;7.75;;;;;12.80;57.60;100449.09;4999555;28;45423;-71
2023/03/18 03:09:12;;;;;;;;;8.00;6.00;;;;;12.77;57.35;100449.22;4999135;28;45264;-71
2023/03/18 03:11:39;;;;;;;;;11.25;9.25;;;;;12.80;57.44;100441.19;4999741;28;46581;-71
2023/03/18 03:14:05;;;;;;;;;7.00;5.25;;;;;12.78;57.55;100443.00;4999078;28;45252;-71
2023/03/18 03:16:31;;;;;;;;;9.75;8.50;;;;;12.79;57.57;100444.72;4997966;28;45308;-70
2023/03/18 03:18:57;;;;;;;;;8.00;6.50;;;;;12.78;57.60;100451.78;4999141;28;45285;-71
2023/03/18 03:21:23;;;;;;;;;9.50;9.50;;;;;12.78;57.60;100435.09;4999184;28;45485;-71
2023/03/18 03:23:48;;;;;;;;;8.75;7.75;;;;;12.80;57.42;100450.00;4998822;28;45396;-71
2023/03/18 03:26:15;;;;;;;;;6.00;6.00;;;;;12.78;57.57;100446.53;4999240;28;45517;-71
2023/03/18 03:28:41;;;;;;;;;11.00;9.00;;;;;12.78;57.82;100446.53;4998782;28;45513;-71
2023/03/18 03:31:08;;;;;;;;;7.00;7.00;;;;;12.78;57.69;100443.00;4999060;28;46103;-71
2023/03/18 03:33:35;;;;;;;;;8.00;8.00;;;;;12.76;57.51;100442.19;4998971;28;45280;-71
2023/03/18 03:36:00;;;;;;;;;10.75;10.00;;;;;12.79;57.47;100450.88;4999104;28;45426;-71
2023/03/18 03:38:26;;;;;;;;;7.25;7.25;;;;;12.80;57.51;100451.75;4998938;28;45234;-71
2023/03/18 03:40:52;;;;;;;;;8.00;8.00;;;;;12.80;57.69;100449.09;4998838;28;45889;-70
2023/03/18 03:43:18;;;;;;;;;10.25;9.00;;;;;12.80;57.81;100447.34;4998810;28;45256;-71
2023/03/18 03:45:43;;;;;;;;;7.75;7.00;;;;;12.80;57.49;100433.28;4998809;28;45310;-70
2023/03/18 03:48:09;;;;;;;;;9.75;8.50;;;;;12.79;57.62;100440.34;4998912;28;45322;-71
2023/03/18 03:50:35;;;;;;;;;10.75;8.75;;;;;12.81;57.66;100459.59;4991367;28;45908;-70
2023/03/18 03:53:02;;;;;;;;;3.00;3.00;;;;;12.81;57.43;100461.38;4993311;28;45364;-70
2023/03/18 03:55:28;;;;;;;;;8.00;8.00;;;;;12.80;57.40;100459.66;4998879;28;45245;-69
2023/03/18 03:57:53;;;;;;;;;11.00;9.00;;;;;12.79;57.24;100463.19;4998516;28;45461;-69
2023/03/18 04:00:21;;;;;;;;;8.00;8.00;;;;;12.80;57.54;100468.44;4998533;28;46305;-69
2023/03/18 04:02:48;;;;;;;;;8.25;7.00;;;;;12.80;57.46;100478.13;4998524;28;45260;-69
2023/03/18 04:05:16;;;;;;;;;11.00;10.75;;;;;12.81;57.82;100479.84;4998864;28;45354;-69
2023/03/18 04:07:42;;;;;;;;;10.00;8.50;;;;;12.82;57.55;100476.31;5013796;28;45523;-68
2023/03/18 04:10:10;;;;;;;;;8.00;8.00;;;;;12.81;57.76;100475.41;4998378;28;46270;-68
2023/03/18 04:12:37;;;;;;;;;10.50;10.00;;;;;12.82;57.44;100468.41;4998418;28;45374;-68
2023/03/18 04:15:04;;;;;;;;;9.75;8.75;;;;;12.81;57.52;100466.66;4996154;28;45320;-68
2023/03/18 04:17:29;;;;;;;;;10.75;7.75;;;;;12.83;57.76;100470.97;4998281;28;45549;-68
2023/03/18 04:19:55;;;;;;;;;8.75;6.75;;;;;12.85;57.60;100470.94;4998336;28;45963;-68
2023/03/18 04:22:21;;;;;;;;;6.50;6.50;;;;;12.84;57.55;100461.28;4998084;28;49498;-68
2023/03/18 04:24:46;;;;;;;;;4.00;3.00;;;;;12.84;57.79;100470.09;4998748;28;45298;-68
2023/03/18 04:27:12;;;;;;;;;9.00;7.25;;;;;12.84;57.97;100477.09;4998249;28;45247;-68
2023/03/18 04:29:37;;;;;;;;;8.75;7.50;;;;;12.84;57.69;100475.34;4998163;28;46225;-68
2023/03/18 04:32:03;;;;;;;;;7.25;7.25;;;;;12.84;57.95;100472.72;4998321;28;45188;-68
2023/03/18 04:34:28;;;;;;;;;8.25;7.50;;;;;12.86;57.53;100477.09;4997335;28;45324;-68
2023/03/18 04:36:54;;;;;;;;;6.50;6.50;;;;;12.84;57.70;100471.84;4998256;28;45507;-68
2023/03/18 04:39:20;;;;;;;;;9.25;8.00;;;;;12.85;57.97;100463.03;4997948;28;45298;-68
2023/03/18 04:41:46;;;;;;;;;8.00;8.00;;;;;12.83;57.40;100464.84;4998260;28;45327;-68
2023/03/18 04:44:12;;;;;;;;;5.75;4.00;;;;;12.84;57.93;100483.28;4998285;28;45393;-68
2023/03/18 04:46:37;;;;;;;;;8.00;6.00;;;;;12.86;57.85;100496.41;4998069;28;45370;-68
2023/03/18 04:49:03;;;;;;;;;8.25;8.25;;;;;12.78;58.00;100485.19;4997794;28;46358;-68
2023/03/18 04:51:28;;;;;;;;;7.75;7.00;;;;;12.84;57.67;100491.19;4984741;28;45323;-68
2023/03/18 04:53:54;;;;;;;;;8.00;7.00;;;;;12.86;57.87;100500.81;4998197;28;45445;-67
2023/03/18 04:56:19;;;;;;;;;9.75;7.00;;;;;12.83;58.14;100491.22;4998079;27;45528;-68
2023/03/18 04:58:45;;;;;;;;;7.00;6.00;;;;;12.84;57.85;100496.44;4997658;28;48022;-67
2023/03/18 05:01:12;;;;;;;;;7.50;6.25;;;;;12.84;57.89;100495.56;4998014;28;45484;-68
2023/03/18 05:03:37;;;;;;;;;8.00;7.00;;;;;12.84;58.22;100490.28;4998080;28;45286;-68
2023/03/18 05:06:03;;;;;;;;;7.00;7.00;;;;;12.82;57.90;100473.66;4998001;28;45331;-68
2023/03/18 05:08:28;;;;;;;;;7.00;7.00;;;;;12.78;58.06;100462.34;4998012;28;45296;-68
2023/03/18 05:10:53;;;;;;;;;7.50;6.75;;;;;12.86;58.07;100461.28;4997707;28;45243;-68
2023/03/18 05:13:19;;;;;;;;;8.75;8.75;;;;;12.87;58.08;100463.84;4998202;28;45243;-68
2023/03/18 05:15:44;;;;;;;;;9.00;8.00;;;;;12.84;57.98;100453.38;4996423;27;45223;-68
2023/03/18 05:18:10;;;;;;;;;6.75;4.00;;;;;12.89;58.12;100466.44;4997896;28;45257;-68
2023/03/18 05:20:35;;;;;;;;;9.00;7.25;;;;;12.90;58.23;100458.47;4997783;28;45529;-69
2023/03/18 05:23:01;;;;;;;;;7.00;6.00;;;;;12.88;58.12;100465.59;4997933;28;45473;-69
2023/03/18 05:25:27;;;;;;;;;8.25;7.25;;;;;12.89;58.07;100462.03;4997619;28;45416;-68
2023/03/18 05:27:53;;;;;;;;;8.75;8.00;;;;;12.89;57.94;100466.44;4996512;28;45409;-68
2023/03/18 05:30:19;;;;;;;;;6.25;5.75;;;;;12.89;57.96;100469.94;4997439;28;45427;-68
2023/03/18 05:32:45;;;;;;;;;7.75;7.00;;;;;12.89;58.22;100471.72;4997894;28;45333;-68
2023/03/18 05:35:10;;;;;;;;;9.00;8.00;;;;;12.87;58.02;100461.22;4997569;28;45412;-68
2023/03/18 05:37:36;;;;;;;;;6.75;6.00;;;;;12.88;58.19;100464.72;5012849;28;47124;-68
2023/03/18 05:40:03;;;;;;;;;7.00;7.00;;;;;12.87;58.05;100461.22;4997378;28;49322;-68
2023/03/18 05:42:29;;;;;;;;;7.75;6.75;;;;;12.86;58.13;100471.81;4997798;28;45266;-68
2023/03/18 05:44:55;;;;;;;;;8.00;8.00;;;;;12.83;58.09;100470.13;5012534;28;45512;-68
2023/03/18 05:47:21;;;;;;;;;7.75;7.25;;;;;12.82;57.90;100465.75;4997304;28;46994;-68
2023/03/18 05:49:47;;;;;;;;;9.50;6.50;;;;;12.80;57.90;100463.19;4996216;28;45424;-68
2023/03/18 05:52:12;;;;;;;;;9.25;8.00;;;;;12.79;57.99;100463.19;4985362;27;45302;-68
2023/03/18 05:54:38;;;;;;;;;7.00;7.00;;;;;12.76;58.31;100464.16;4997209;28;45294;-69
2023/03/18 05:57:04;;;;;;;;;9.00;8.25;;;;;12.73;58.14;100464.25;4996820;28;46082;-69
2023/03/18 05:59:30;;;;;;;;;5.75;5.50;;;;;12.71;58.08;100459.91;4996954;28;45327;-69
2023/03/18 06:01:56;;;;;;;;;7.50;7.00;;;;;12.68;58.05;100469.63;4997677;28;45445;-69
2023/03/18 06:04:21;;;;;;;;;9.50;8.75;;;;;12.64;58.35;100462.72;4997016;28;45287;-68
2023/03/18 06:06:47;;;;;;;;;6.50;5.50;;;;;12.63;58.31;100465.41;4997257;28;45287;-69
2023/03/18 06:09:13;;;;;;;;;7.25;7.00;;;;;12.58;58.12;100470.78;4997012;28;45482;-69
2023/03/18 06:11:39;;;;;;;;;7.00;5.75;;;;;12.55;58.20;100462.94;4997486;28;45429;-69
2023/03/18 06:14:06;;;;;;;;;8.00;5.25;;;;;12.50;58.39;100460.47;4996744;28;45475;-69
2023/03/18 06:16:32;;;;;;;;;5.50;5.00;;;;;12.47;58.11;100460.53;4994470;28;46395;-69
2023/03/18 06:18:58;;;;;;;;;5.00;5.00;;;;;12.45;58.37;100458.84;4995481;28;45913;-69
2023/03/18 06:21:25;;;;;;;;;5.00;5.00;;;;;12.42;58.41;100451.88;4995658;28;45472;-68
2023/03/18 06:23:51;;;;;;;;;3.00;3.00;;;;;12.39;58.61;100451.97;4995068;28;45522;-69
2023/03/18 06:26:17;;;;;;;;;3.00;3.00;;;;;12.33;58.37;100445.06;4995417;28;45509;-68
2023/03/18 06:28:43;;;;;;;;;4.50;3.75;;;;;12.31;58.61;100444.28;4994990;28;45423;-69
2023/03/18 06:31:09;;;;;;;;;6.50;4.00;;;;;12.31;58.46;100444.28;4994524;27;45443;-69
2023/03/18 06:33:35;;;;;;;;;6.25;5.00;;;;;12.29;58.55;100448.72;4995171;28;45457;-68
2023/03/18 06:36:01;;;;;;;;;4.75;4.00;;;;;12.27;58.54;100453.13;4993908;28;46006;-69
2023/03/18 06:38:27;;;;;;;;;6.00;6.00;;;;;12.25;58.67;100452.34;4996894;27;45366;-69
2023/03/18 06:40:53;;;;;;;;;5.75;5.00;;;;;12.24;58.60;100453.22;4998107;27;45314;-70
2023/03/18 06:43:18;;;;;;;;;4.00;4.00;;;;;12.25;58.77;100465.50;4998124;27;46611;-69
2023/03/18 06:45:45;;;;;;;;;5.00;5.00;;;;;12.24;58.46;100461.13;4997989;27;46828;-70
2023/03/18 06:48:10;;;;;;;;;4.00;4.00;;;;;12.22;58.56;100470.84;5013258;28;45516;-69
2023/03/18 06:50:38;;;;;;;;;5.25;4.75;;;;;12.23;58.68;100463.81;4994478;27;45402;-70
2023/03/18 06:53:04;;;;;;;;;6.00;4.00;;;;;12.21;58.77;100477.00;4998141;28;45314;-69
2023/03/18 06:55:29;;;;;;;;;6.25;5.75;;;;;12.21;58.91;100477.00;4997830;27;45272;-68
2023/03/18 06:57:55;;;;;;;;;5.00;5.00;;;;;12.19;58.81;100476.19;4999553;28;45234;-69
2023/03/18 07:00:21;;;;;;;;;7.25;6.00;;;;;12.17;58.82;100472.72;5004795;28;45386;-69
2023/03/18 07:02:47;;;;;;;;;5.00;4.50;;;;;12.18;58.86;100480.59;5011584;28;45480;-69
2023/03/18 07:05:13;;;;;;;;;5.00;3.75;;;;;12.18;58.75;100483.22;4999380;28;45299;-70
2023/03/18 07:07:39;;;;;;;;;4.25;4.25;;;;;12.18;58.69;100485.84;4999476;28;45453;-70
2023/03/18 07:10:06;;;;;;;;;6.00;5.00;;;;;12.17;59.02;100480.63;4999318;28;45402;-69
2023/03/18 07:12:31;;;;;;;;;4.00;4.00;;;;;12.18;59.07;100483.22;4999381;28;45494;-71
2023/03/18 07:14:56;;;;;;;;;4.25;4.25;;;;;12.18;59.07;100485.84;4995369;27;46780;-70
2023/03/18 07:17:23;;;;;;;;;6.75;5.00;;;;;12.15;59.20;100488.56;4999196;28;45346;-71
2023/03/18 07:19:48;;;;;;;;;5.75;4.75;;;;;12.16;59.06;100481.53;4999483;28;45215;-70
2023/03/18 07:22:16;;;;;;;;;7.75;6.25;;;;;12.16;59.16;100490.31;4998976;28;45440;-71
2023/03/18 07:24:44;;;;;;;;;5.25;5.25;;;;;12.16;59.08;100495.59;4999266;28;45351;-70
2023/03/18 07:27:12;;;;;;;;;5.25;4.25;;;;;12.20;59.10;100493.75;4998997;28;45469;-68
2023/03/18 07:29:37;;;;;;;;;5.75;4.50;;;;;12.19;59.14;100506.03;4999045;28;45266;-68
2023/03/18 07:32:03;;;;;;;;;6.00;6.00;;;;;12.21;59.02;100503.34;4998944;28;45537;-69
2023/03/18 07:34:28;;;;;;;;;8.25;8.25;;;;;12.22;59.24;100496.34;5004247;28;45368;-68
2023/03/18 07:36:54;;;;;;;;;9.50;8.00;;;;;12.25;59.19;100515.56;5011278;28;45420;-69
2023/03/18 07:39:19;;;;;;;;;7.50;6.50;;;;;12.27;59.34;100519.00;4998994;28;45244;-69
2023/03/18 07:41:45;;;;;;;;;6.75;6.75;;;;;12.29;59.43;100514.56;4998929;28;45260;-70
2023/03/18 07:44:10;;;;;;;;;5.75;4.25;;;;;12.29;59.16;100516.31;4998825;28;45208;-71
2023/03/18 07:46:36;;;;;;;;;6.00;6.00;;;;;12.33;59.27;100516.22;4998840;28;45276;-70
2023/03/18 07:49:01;;;;;;;;;6.75;5.00;;;;;12.36;59.44;100523.19;4998191;28;45525;-70
2023/03/18 07:51:26;;;;;;;;;5.75;5.75;;;;;12.38;59.40;100521.38;5016725;28;45404;-70
2023/03/18 07:53:52;;;;;;;;;2.25;1.75;;;;;12.41;59.44;100525.72;5001986;28;46425;-67
2023/03/18 07:56:18;;;;;;;;;4.50;4.50;;;;;12.44;59.27;100517.72;5004236;28;45404;-66
2023/03/18 07:58:43;;;;;;;;;6.50;6.50;;;;;12.44;60.00;100515.06;5010592;28;45284;-65
2023/03/18 08:01:08;;;;;;;;;6.50;5.25;;;;;12.45;59.69;100504.53;4991417;28;46444;-66
2023/03/18 08:03:34;;;;;;;;;6.50;4.25;;;;;12.46;59.70;100508.00;4998526;28;46399;-69
2023/03/18 08:06:00;;;;;;;;;7.25;6.25;;;;;12.49;59.56;100503.53;5013636;28;45299;-65
2023/03/18 08:08:26;;;;;;;;;4.75;4.50;;;;;12.54;59.85;100507.81;5013965;28;45330;-67
2023/03/18 08:10:56;;;;;;;;;5.75;4.75;;;;;12.56;59.83;100512.13;4998091;28;45170;-69
2023/03/18 08:13:21;;;;;;;;;5.50;5.50;;;;;12.60;59.83;100516.44;4997116;28;47795;-68
2023/03/18 08:15:47;;;;;;;;;8.00;4.75;;;;;12.63;59.60;100507.59;4997784;28;45342;-66
2023/03/18 08:18:12;;;;;;;;;6.25;5.25;;;;;12.63;60.03;100510.22;4997267;28;45322;-65
2023/03/18 08:20:38;;;;;;;;;6.00;4.50;;;;;12.66;59.98;100521.53;5010179;28;45331;-68
2023/03/18 08:23:03;;;;;;;;;6.25;6.25;;;;;12.70;59.87;100524.09;4998430;28;45461;-68
2023/03/18 08:25:29;;;;;;;;;6.50;4.75;;;;;12.70;60.04;100526.72;5012854;28;45485;-69
2023/03/18 08:27:55;;;;;;;;;4.00;4.00;;;;;12.70;59.85;100517.03;5013689;28;45359;-69
2023/03/18 08:30:24;;;;;;;;;6.25;5.00;;;;;12.78;59.60;100524.75;4991128;28;45389;-68
2023/03/18 08:32:49;;;;;;;;;4.75;4.75;;;;;12.79;59.86;100529.13;4996805;28;45431;-68
2023/03/18 08:35:14;;;;;;;;;4.75;4.75;;;;;12.80;60.29;100536.13;4998124;28;45302;-61
2023/03/18 08:37:40;;;;;;;;;4.75;4.25;;;;;12.80;59.95;100544.03;4998468;28;45260;-71
2023/03/18 08:40:06;;;;;;;;;6.00;6.00;;;;;12.82;60.09;100537.81;4998159;28;45280;-67
2023/03/18 08:42:31;;;;;;;;;3.50;3.50;;;;;12.83;59.93;100531.63;4998197;28;45257;-66
2023/03/18 08:44:56;;;;;;;;;8.00;7.00;;;;;12.87;60.14;100531.53;5006571;28;45314;-66
2023/03/18 08:47:23;;;;;;;;;5.25;5.00;;;;;12.90;59.98;100528.84;4998216;28;45390;-64
2023/03/18 08:49:49;;;;;;;;;6.25;5.50;;;;;12.93;60.04;100526.97;4996729;28;45575;-67
2023/03/18 08:52:15;;;;;;;;;4.75;4.00;;;;;12.96;59.83;100521.59;4986284;28;45391;-68
2023/03/18 08:54:40;;;;;;;;;4.75;4.75;;;;;12.97;59.89;100523.34;4997902;28;45374;-67
2023/03/18 08:57:06;;;;;;;;;4.00;4.00;;;;;13.01;59.62;100524.13;4998426;28;45335;-67
2023/03/18 08:59:31;;;;;;;;;4.50;4.00;;;;;13.02;59.70;100512.69;4997650;28;45497;-65
2023/03/18 09:01:56;;;;;;;;;9.25;5.75;;;;;13.09;60.06;100511.56;4990353;28;45705;-65
2023/03/18 09:04:24;;;;;;;;;5.75;5.75;;;;;13.13;59.52;100518.50;4997459;28;54217;-66
2023/03/18 09:06:49;;;;;;;;;8.50;6.50;;;;;13.12;59.66;100505.38;4998218;28;45224;-72
2023/03/18 09:09:15;;;;;;;;;0.00;0.00;;;;;13.20;59.66;100513.91;4997288;28;54538;-64
2023/03/18 09:11:41;;;;;;;;;4.50;4.50;;;;;13.15;59.52;100503.50;4998033;28;45316;-66
2023/03/18 09:14:07;;;;;;;;;4.50;4.50;;;;;13.26;59.83;100515.53;4997592;28;45251;-69
2023/03/18 09:16:32;;;;;;;;;6.00;6.00;;;;;13.31;60.00;100514.47;4996643;28;45367;-66
2023/03/18 09:18:57;;;;;;;;;7.00;5.00;;;;;13.36;60.06;100505.53;4997597;28;45488;-71
2023/03/18 09:21:23;;;;;;;;;6.00;6.00;;;;;13.42;59.75;100510.69;4997809;28;47205;-70
2023/03/18 09:23:49;;;;;;;;;5.00;4.00;;;;;13.48;59.69;100506.09;4997829;28;45436;-68
2023/03/18 09:26:15;;;;;;;;;9.50;4.00;;;;;13.54;59.76;100506.81;4997852;28;45342;-67
2023/03/18 09:28:41;;;;;;;;;4.00;4.00;;;;;13.65;59.52;100510.84;4997293;28;45541;-65
2023/03/18 09:31:06;;;;;;;;;5.00;3.75;;;;;13.76;59.61;100509.66;4990548;28;46471;-67
2023/03/18 09:33:32;;;;;;;;;6.25;5.00;;;;;13.84;59.80;100507.66;4997624;28;45470;-66
2023/03/18 09:35:57;;;;;;;;;4.50;4.00;;;;;13.95;59.79;100505.53;5013142;28;45339;-64
2023/03/18 09:38:22;;;;;;;;;5.25;4.75;;;;;14.09;59.54;100510.38;4997365;28;45239;-65
2023/03/18 09:41:04;;;;;;;;;5.00;5.00;;;;;14.22;59.85;100516.09;4996724;28;45283;-66
2023/03/18 09:44:05;;;;;;;;;4.50;4.50;;;;;14.40;60.17;100513.75;4997080;28;45678;-66
2023/03/18 09:46:44;;;;;;;;;3.25;2.00;;;;;14.54;59.79;100498.31;4983084;28;45185;-63
2023/03/18 09:49:18;;;;;;;;;3.50;2.50;;;;;14.74;60.22;100500.28;4997137;28;45323;-62
2023/03/18 09:51:46;;;;;;;;;3.00;2.00;;;;;14.92;60.12;100505.84;4983836;28;45858;-62
2023/03/18 09:54:19;;;;;;;;;4.75;4.00;;;;;15.08;59.45;100506.13;4995902;28;46016;-61
2023/03/18 09:56:44;;;;;;;;;4.75;3.00;;;;;15.19;59.74;100500.47;4997293;28;45504;-68
2023/03/18 09:59:36;;;;;;;;;4.50;4.25;;;;;15.37;59.86;100514.78;4997039;28;45532;-66
2023/03/18 10:02:04;;;;;;;;;6.25;3.00;;;;;15.47;59.51;100508.22;4989663;28;45359;-74
2023/03/18 10:04:42;;;;;;;;;4.50;4.50;;;;;15.61;58.90;100507.69;4996985;28;45476;-72
2023/03/18 10:07:18;;;;;;;;;3.75;3.25;;;;;15.69;59.29;100507.41;4997350;28;45338;-72
2023/03/18 10:09:54;;;;;;;;;5.00;4.00;;;;;15.77;59.23;100494.69;4997071;28;45395;-64
2023/03/18 10:12:35;;;;;;;;;2.25;2.00;;;;;15.83;59.47;100498.94;4995899;28;46339;-71
2023/03/18 10:15:30;;;;;;;;;4.75;4.00;;;;;15.90;59.31;100503.06;4995488;28;45308;-71
2023/03/18 10:18:20;;;;;;;;;4.00;3.75;;;;;15.96;58.82;100516.06;4995826;27;45386;-69
2023/03/18 10:21:40;;;;;;;;;2.75;2.75;;;;;16.02;58.64;100520.25;4996824;28;45235;-68
2023/03/18 10:24:49;;;;;;;;;3.50;2.50;;;;;16.07;58.30;100519.16;4935964;28;45487;-69
2023/03/18 10:27:21;;;;;;;;;5.75;3.50;;;;;16.13;58.01;100512.72;4996720;28;45251;-72
2023/03/18 10:29:57;;;;;;;;;3.00;3.00;;;;;16.20;58.49;100515.97;4994347;28;45476;-70
2023/03/18 10:32:34;;;;;;;;;3.75;2.00;;;;;16.22;57.85;100520.28;4993329;28;45255;-70
2023/03/18 10:35:40;;;;;;;;;3.00;3.00;;;;;16.20;57.95;100514.19;4996458;28;45567;-68
2023/03/18 10:38:19;;;;;;;;;4.75;2.00;;;;;16.29;57.60;100526.22;4996520;28;45519;-65
2023/03/18 10:40:46;;;;;;;;;1.00;1.00;;;;;16.30;57.75;100516.47;4984836;28;45374;-62
2023/03/18 10:43:25;;;;;;;;;3.00;2.75;;;;;16.21;57.58;100502.69;4996364;28;45520;-60
2023/03/18 10:46:03;;;;;;;;;4.00;4.00;;;;;16.35;57.40;100511.81;4996490;28;45419;-63
2023/03/18 10:48:34;;;;;;;;;2.00;2.00;;;;;16.33;57.51;100514.56;4996071;28;45296;-61
2023/03/18 10:51:18;;;;;;;;;2.00;2.00;;;;;16.32;57.40;100507.50;4985728;28;45392;-68
2023/03/18 10:53:49;;;;;;;;;4.00;2.75;;;;;16.39;57.40;100513.44;4982968;28;45578;-64
2023/03/18 10:56:15;;;;;;;;;1.25;1.25;;;;;16.49;57.11;100511.25;4996101;28;46505;-67
2023/03/18 10:58:41;;;;;;;;;4.25;4.25;;;;;16.60;56.97;100522.25;4996083;28;45382;-67
2023/03/18 11:01:11;;;;;;;;;6.00;4.25;;;;;16.62;57.12;100507.16;4989500;28;45431;-67
2023/03/18 11:03:58;;;;;;;;;4.50;3.50;;;;;16.77;56.97;100496.81;4996407;28;45395;-68
2023/03/18 11:06:43;;;;;;;;;5.50;3.75;;;;;16.89;56.72;100502.44;4996022;28;46212;-68
2023/03/18 11:09:21;;;;;;;;;3.00;2.00;;;;;16.95;56.97;100506.63;4996001;28;45470;-69
2023/03/18 11:11:55;;;;;;;;;2.25;2.00;;;;;17.03;56.70;100509.81;4995015;28;45329;-69
2023/03/18 11:14:28;;;;;;;;;5.00;3.00;;;;;17.24;56.60;100506.25;4995855;28;45402;-75
2023/03/18 11:16:59;;;;;;;;;2.25;2.25;;;;;17.36;56.89;100509.19;4994601;28;47105;-70
2023/03/18 11:19:28;;;;;;;;;4.00;4.00;;;;;17.47;56.62;100508.72;4995884;28;45268;-69
2023/03/18 11:22:05;;;;;;;;;2.00;2.00;;;;;17.57;56.17;100508.25;4996171;28;45382;-68
2023/03/18 11:24:35;;;;;;;;;2.00;2.00;;;;;17.59;56.68;100507.25;4985516;28;45383;-67
2023/03/18 11:27:01;;;;;;;;;3.25;3.00;;;;;17.65;56.21;100517.59;4999088;28;45249;-68